Time;durP1;ratioP1;P1;durP2;ratioP2;P2;SDS_P1;SDS_P2;PMS_P1;PMS_P2;Temp;Humidity;BMP_temperature;BMP_pressure;BME280_temperature;BME280_humidity;BME280_pressure;Samples;Min_cycle;Max_cycle;Signal;HPM_P1;HPM_P2
2023/06/17 00:00:15;;;;;;;4.97;3.50;;;;;;;17.17;54.04;101557.91;5049577;28;20055;-78
2023/06/17 00:02:40;;;;;;;6.50;3.78;;;;;;;17.13;55.12;101556.34;5034291;28;20503;-78
2023/06/17 00:05:06;;;;;;;5.85;3.72;;;;;;;17.08;54.85;101559.16;5050511;28;20100;-78
2023/06/17 00:07:31;;;;;;;5.57;3.60;;;;;;;17.01;53.65;101557.72;5049261;28;20495;-78
2023/06/17 00:09:56;;;;;;;5.15;3.78;;;;;;;16.97;51.08;101556.13;5052486;28;20055;-78
2023/06/17 00:12:24;;;;;;;6.78;3.75;;;;;;;16.94;51.01;101553.56;5051906;28;20383;-78
2023/06/17 00:14:50;;;;;;;5.28;3.83;;;;;;;16.89;50.68;101558.19;5033917;28;20035;-78
2023/06/17 00:17:16;;;;;;;5.10;3.97;;;;;;;16.87;51.39;101557.41;5051289;28;20035;-78
2023/06/17 00:19:41;;;;;;;6.55;4.00;;;;;;;16.82;51.74;101553.16;5048162;28;20021;-78
2023/06/17 00:22:08;;;;;;;4.93;3.70;;;;;;;16.78;51.73;101550.75;5048603;28;20495;-78
2023/06/17 00:24:34;;;;;;;7.18;3.75;;;;;;;16.74;51.11;101549.97;5052619;28;20029;-78
2023/06/17 00:26:59;;;;;;;8.57;4.50;;;;;;;16.68;51.50;101545.84;5050832;28;20031;-78
2023/06/17 00:29:24;;;;;;;6.72;4.30;;;;;;;16.63;51.89;101546.94;5049610;28;20040;-78
2023/06/17 00:31:50;;;;;;;6.22;4.10;;;;;;;16.59;52.34;101545.34;5049413;28;20380;-78
2023/06/17 00:34:15;;;;;;;5.53;4.30;;;;;;;16.54;52.15;101545.53;5047506;28;20029;-78
2023/06/17 00:36:40;;;;;;;7.78;4.45;;;;;;;16.47;51.65;101542.31;5049806;28;20387;-78
2023/06/17 00:39:06;;;;;;;6.50;4.53;;;;;;;16.42;51.53;101543.41;5051311;28;20052;-78
2023/06/17 00:41:32;;;;;;;5.88;4.50;;;;;;;16.33;52.61;101547.25;5050069;28;20025;-78
2023/06/17 00:43:57;;;;;;;8.57;4.68;;;;;;;16.27;55.71;101545.72;5049939;28;20091;-78
2023/06/17 00:46:35;;;;;;;6.93;4.57;;;;;;;16.22;54.83;101547.66;5053075;28;20032;-78
2023/06/17 00:49:01;;;;;;;6.85;4.35;;;;;;;16.14;55.63;101553.19;5052854;28;20025;-78
2023/06/17 00:51:27;;;;;;;7.60;4.68;;;;;;;16.11;54.90;101550.69;5051895;28;20115;-78
2023/06/17 00:53:52;;;;;;;6.25;4.43;;;;;;;16.08;56.40;101556.91;5052917;28;20416;-78
2023/06/17 00:56:18;;;;;;;6.60;4.50;;;;;;;16.02;56.34;101549.25;5052600;28;20612;-78
2023/06/17 00:58:44;;;;;;;8.30;4.70;;;;;;;15.99;58.24;101543.28;5051416;28;20491;-78
2023/06/17 01:01:10;;;;;;;5.93;4.43;;;;;;;15.95;57.98;101549.53;5048500;28;20032;-78
2023/06/17 01:03:35;;;;;;;6.75;4.70;;;;;;;15.91;57.58;101547.03;5047953;28;20048;-78
2023/06/17 01:06:07;;;;;;;11.02;4.82;;;;;;;15.85;58.95;101544.66;5052014;28;20021;-78
2023/06/17 01:08:42;;;;;;;8.52;4.50;;;;;;;15.76;57.00;101537.06;5047629;28;20430;-78
2023/06/17 01:11:16;;;;;;;7.72;5.00;;;;;;;15.77;57.25;101538.78;5051055;28;20079;-78
2023/06/17 01:13:43;;;;;;;7.38;4.75;;;;;;;15.75;56.95;101538.84;5050683;28;20048;-78
2023/06/17 01:16:08;;;;;;;7.45;4.88;;;;;;;15.74;55.03;101533.63;5050636;28;20021;-78
2023/06/17 01:18:36;;;;;;;6.80;4.95;;;;;;;15.70;54.69;101532.06;5046973;28;20028;-78
2023/06/17 01:21:03;;;;;;;8.48;5.57;;;;;;;15.65;55.08;101526.97;5051528;28;20048;-78
2023/06/17 01:23:37;;;;;;;9.18;5.30;;;;;;;15.61;54.98;101531.47;5049935;28;20090;-78
2023/06/17 01:26:04;;;;;;;6.88;5.07;;;;;;;15.55;56.26;101529.06;5049372;28;20541;-78
2023/06/17 01:28:30;;;;;;;7.18;5.10;;;;;;;15.50;56.20;101527.50;5051426;28;20488;-78
2023/06/17 01:30:57;;;;;;;7.18;5.22;;;;;;;15.47;56.49;101525.84;5049051;28;20032;-78
2023/06/17 01:33:24;;;;;;;9.48;5.40;;;;;;;15.42;58.71;101533.91;5048797;28;20551;-78
2023/06/17 01:36:07;;;;;;;9.35;4.95;;;;;;;15.43;57.02;101532.13;5048619;28;20040;-78
2023/06/17 01:39:01;;;;;;;7.35;5.05;;;;;;;15.40;57.34;101532.22;5048868;28;20114;-78
2023/06/17 01:41:34;;;;;;;12.45;5.20;;;;;;;15.32;59.53;101528.13;5046830;28;20028;-78
2023/06/17 01:44:01;;;;;;;11.65;4.90;;;;;;;15.31;59.96;101521.16;5044865;28;20021;-78
2023/06/17 01:46:27;;;;;;;8.35;4.95;;;;;;;15.26;59.32;101525.69;5044382;28;20036;-78
2023/06/17 01:48:54;;;;;;;7.32;5.28;;;;;;;15.24;58.28;101527.50;5045825;28;20379;-78
2023/06/17 01:51:19;;;;;;;8.70;5.18;;;;;;;15.20;58.74;101527.69;5045691;28;20115;-78
2023/06/17 01:53:45;;;;;;;10.07;5.25;;;;;;;15.15;58.45;101528.69;5044308;28;20512;-78
2023/06/17 01:56:11;;;;;;;7.97;5.25;;;;;;;15.14;58.80;101526.13;5046753;28;20182;-78
2023/06/17 01:58:36;;;;;;;8.57;5.32;;;;;;;15.13;60.38;101525.25;5045141;28;20029;-78
2023/06/17 02:01:01;;;;;;;7.63;5.63;;;;;;;15.12;60.25;101531.41;5043364;28;20459;-78
2023/06/17 02:03:26;;;;;;;7.32;5.38;;;;;;;15.11;60.08;101526.22;5047841;28;20033;-78
2023/06/17 02:05:52;;;;;;;9.25;5.82;;;;;;;15.08;59.93;101531.56;5048353;28;20025;-78
2023/06/17 02:08:17;;;;;;;8.90;5.55;;;;;;;15.03;60.30;101524.69;5046548;28;20033;-78
2023/06/17 02:10:42;;;;;;;10.50;5.82;;;;;;;14.98;60.31;101523.16;5049370;28;20064;-78
2023/06/17 02:13:08;;;;;;;9.32;5.75;;;;;;;14.96;60.82;101524.97;5049862;28;20066;-78
2023/06/17 02:15:33;;;;;;;9.07;6.00;;;;;;;14.92;60.58;101518.97;5045587;28;20059;-78
2023/06/17 02:17:59;;;;;;;10.35;5.47;;;;;;;14.91;61.62;101517.25;5050919;28;20033;-78
2023/06/17 02:20:25;;;;;;;7.70;5.35;;;;;;;14.89;61.65;101521.69;5048387;28;20498;-78
2023/06/17 02:22:50;;;;;;;7.85;5.90;;;;;;;14.84;61.82;101513.16;5050628;28;20032;-78
2023/06/17 02:25:15;;;;;;;8.45;5.80;;;;;;;14.79;60.89;101510.66;5047859;28;20024;-78
2023/06/17 02:27:41;;;;;;;8.45;5.88;;;;;;;14.74;59.36;101516.94;5045382;28;20037;-78
2023/06/17 02:30:09;;;;;;;8.02;5.47;;;;;;;14.71;59.78;101510.91;5047920;28;20476;-78
2023/06/17 02:32:34;;;;;;;7.60;5.63;;;;;;;14.66;59.01;101510.19;5046768;28;20480;-78
2023/06/17 02:34:59;;;;;;;8.88;6.22;;;;;;;14.64;58.45;101509.38;5046413;28;20028;-78
2023/06/17 02:37:25;;;;;;;10.88;6.22;;;;;;;14.65;58.81;101512.84;5048716;28;20103;-78
2023/06/17 02:39:51;;;;;;;8.90;6.00;;;;;;;14.62;58.73;101508.56;5049695;28;20168;-78
2023/06/17 02:42:16;;;;;;;9.80;6.72;;;;;;;14.60;58.79;101505.13;5033529;28;20460;-78
2023/06/17 02:44:41;;;;;;;9.00;6.40;;;;;;;14.58;58.33;101506.94;5055340;28;20040;-78
2023/06/17 02:47:07;;;;;;;8.45;6.55;;;;;;;14.49;59.84;101502.00;5055321;28;20496;-78
2023/06/17 02:49:32;;;;;;;10.35;6.72;;;;;;;14.46;60.71;101504.72;5054754;28;20033;-78
2023/06/17 02:51:57;;;;;;;7.70;6.30;;;;;;;14.40;60.43;101498.75;5055155;28;20021;-78
2023/06/17 02:54:23;;;;;;;9.55;6.40;;;;;;;14.37;62.33;101493.63;5054055;28;20031;-78
2023/06/17 02:56:48;;;;;;;9.90;5.82;;;;;;;14.36;62.60;101494.53;5053462;28;20242;-78
2023/06/17 02:59:14;;;;;;;8.10;6.20;;;;;;;14.35;62.27;101491.97;5055047;28;20078;-78
2023/06/17 03:01:42;;;;;;;9.98;5.85;;;;;;;14.32;62.40;101492.06;5051213;28;20498;-78
2023/06/17 03:04:12;;;;;;;9.48;6.10;;;;;;;14.29;62.44;101492.16;5052058;28;20063;-78
2023/06/17 03:06:41;;;;;;;9.05;6.32;;;;;;;14.30;61.93;101493.84;5034855;28;20025;-78
2023/06/17 03:09:10;;;;;;;9.45;6.10;;;;;;;14.27;61.83;101486.97;5053926;28;20421;-78
2023/06/17 03:11:36;;;;;;;8.52;6.47;;;;;;;14.25;61.95;101494.88;5051747;28;20032;-78
2023/06/17 03:14:02;;;;;;;9.18;6.45;;;;;;;14.23;62.04;101495.81;5053867;28;20031;-78
2023/06/17 03:16:33;;;;;;;8.45;5.95;;;;;;;14.20;62.02;101488.06;5050060;28;20029;-78
2023/06/17 03:19:00;;;;;;;9.43;6.55;;;;;;;14.16;62.91;101491.69;5053601;28;20086;-78
2023/06/17 03:21:29;;;;;;;12.10;6.75;;;;;;;14.13;62.63;101494.38;5052817;28;20472;-78
2023/06/17 03:23:57;;;;;;;10.75;6.70;;;;;;;14.05;61.44;101492.00;5052483;28;20044;-78
2023/06/17 03:26:23;;;;;;;11.15;6.47;;;;;;;14.01;61.17;101487.75;5052896;28;20039;-78
2023/06/17 03:28:48;;;;;;;10.95;6.20;;;;;;;13.96;61.53;101483.50;5053879;28;20033;-78
2023/06/17 03:31:18;;;;;;;10.25;6.53;;;;;;;13.93;61.06;101485.38;5050913;28;20036;-78
2023/06/17 03:33:43;;;;;;;11.13;7.05;;;;;;;13.90;61.63;101490.69;5052543;28;20099;-78
2023/06/17 03:36:08;;;;;;;9.55;7.47;;;;;;;13.83;62.91;101486.56;5051247;28;20460;-78
2023/06/17 03:38:33;;;;;;;8.48;6.35;;;;;;;13.83;61.87;101481.31;5053619;28;20076;-78
2023/06/17 03:40:59;;;;;;;9.75;7.20;;;;;;;13.86;63.86;101481.22;5049905;28;20049;-78
2023/06/17 03:43:24;;;;;;;9.73;6.72;;;;;;;13.83;62.73;101481.31;5051368;28;20426;-78
2023/06/17 03:45:49;;;;;;;9.45;7.07;;;;;;;13.80;63.54;101482.25;5049338;28;20032;-78
2023/06/17 03:48:15;;;;;;;9.77;6.50;;;;;;;13.77;63.56;101477.97;5051833;28;20479;-78
2023/06/17 03:50:40;;;;;;;9.98;6.68;;;;;;;13.75;62.72;101487.63;5051263;28;20028;-78
2023/06/17 03:53:06;;;;;;;13.85;6.75;;;;;;;13.76;63.85;101486.72;5048390;28;20028;-78
2023/06/17 03:55:32;;;;;;;8.95;6.53;;;;;;;13.75;64.57;101481.56;5049367;28;20044;-78
2023/06/17 03:57:58;;;;;;;10.10;6.80;;;;;;;13.74;64.81;101483.28;5050579;28;20134;-78
2023/06/17 04:00:23;;;;;;;10.15;7.00;;;;;;;13.73;65.37;101481.56;5051854;28;20548;-78
2023/06/17 04:02:48;;;;;;;9.63;6.97;;;;;;;13.73;63.76;101483.34;5049385;28;20543;-78
2023/06/17 04:05:15;;;;;;;10.43;6.85;;;;;;;13.70;64.04;101486.88;5048118;28;20037;-78
2023/06/17 04:07:42;;;;;;;9.48;6.75;;;;;;;13.71;63.85;101483.38;5047049;28;20103;-78
2023/06/17 04:10:10;;;;;;;10.23;7.00;;;;;;;13.72;64.87;101485.09;5048764;28;20020;-78
2023/06/17 04:12:37;;;;;;;11.65;7.70;;;;;;;13.73;65.17;101485.97;5046324;28;20471;-78
2023/06/17 04:15:07;;;;;;;10.80;7.50;;;;;;;13.73;66.00;101485.97;5045496;28;20082;-78
2023/06/17 04:17:32;;;;;;;10.73;7.22;;;;;;;13.76;65.05;101486.72;5049114;28;20052;-78
2023/06/17 04:20:10;;;;;;;9.98;7.03;;;;;;;13.79;66.14;101486.63;5047962;28;20025;-78
2023/06/17 04:22:40;;;;;;;9.80;7.30;;;;;;;13.82;66.03;101485.69;5045860;28;20031;-78
2023/06/17 04:25:07;;;;;;;10.95;7.07;;;;;;;13.86;66.93;101487.31;5050095;28;20420;-78
2023/06/17 04:27:32;;;;;;;10.25;6.63;;;;;;;13.89;66.20;101491.59;5031366;28;20052;-78
2023/06/17 04:29:57;;;;;;;11.07;6.95;;;;;;;13.94;65.61;101484.47;5050217;28;20052;-78
2023/06/17 04:32:25;;;;;;;11.73;7.60;;;;;;;13.95;66.42;101481.78;5050771;28;20110;-78
2023/06/17 04:34:51;;;;;;;9.05;6.85;;;;;;;13.96;66.81;101485.28;5050045;28;20025;-78
2023/06/17 04:37:16;;;;;;;8.88;7.32;;;;;;;13.96;67.48;101483.50;5049284;28;20025;-78
2023/06/17 04:39:42;;;;;;;10.73;7.43;;;;;;;13.99;67.07;101479.97;5051568;28;20032;-78
2023/06/17 04:42:10;;;;;;;10.10;7.05;;;;;;;14.02;67.24;101482.47;5051365;28;20472;-78
2023/06/17 04:44:39;;;;;;;13.40;7.63;;;;;;;14.07;67.56;101479.75;5050504;28;20060;-78
2023/06/17 04:47:06;;;;;;;12.25;7.53;;;;;;;14.13;67.40;101483.94;5048895;28;20032;-78
2023/06/17 04:49:38;;;;;;;10.60;7.25;;;;;;;14.16;68.15;101484.69;5050663;28;20024;-78
2023/06/17 04:52:05;;;;;;;10.18;7.43;;;;;;;14.19;68.62;101488.94;5051431;28;20025;-78
2023/06/17 04:54:30;;;;;;;9.52;7.53;;;;;;;14.22;68.82;101488.88;5052874;28;20068;-78
2023/06/17 04:56:57;;;;;;;11.77;7.78;;;;;;;14.28;69.75;101496.53;5049032;28;20494;-78
2023/06/17 04:59:22;;;;;;;12.57;8.10;;;;;;;14.34;70.32;101498.97;5031223;28;20021;-78
2023/06/17 05:01:47;;;;;;;10.38;8.35;;;;;;;14.39;69.20;101486.56;5049655;28;20112;-78
2023/06/17 05:04:13;;;;;;;11.30;8.32;;;;;;;14.47;69.48;101490.72;5049296;28;20025;-78
2023/06/17 05:06:38;;;;;;;11.13;8.77;;;;;;;14.54;70.05;101495.72;5048110;28;20028;-78
2023/06/17 05:09:03;;;;;;;12.25;8.45;;;;;;;14.62;68.79;101495.47;5048980;28;20108;-78
2023/06/17 05:11:29;;;;;;;16.13;8.48;;;;;;;14.68;68.13;101492.69;5045377;28;20025;-78
2023/06/17 05:13:54;;;;;;;10.57;8.48;;;;;;;14.76;67.50;101495.06;5049043;28;20044;-78
2023/06/17 05:16:19;;;;;;;13.07;9.02;;;;;;;14.80;67.64;101495.81;5047983;28;20033;-78
2023/06/17 05:18:45;;;;;;;16.70;9.43;;;;;;;14.88;67.51;101501.63;5050268;28;20021;-78
2023/06/17 05:21:10;;;;;;;14.07;9.48;;;;;;;14.96;68.00;101496.13;5048135;28;20558;-78
2023/06/17 05:23:35;;;;;;;13.57;9.65;;;;;;;15.05;67.77;101502.84;5032177;28;20443;-78
2023/06/17 05:26:00;;;;;;;13.90;9.43;;;;;;;15.10;68.96;101498.31;5050373;28;20024;-78
2023/06/17 05:28:26;;;;;;;12.60;9.23;;;;;;;15.20;68.19;101497.06;5048710;28;20298;-78
2023/06/17 05:30:51;;;;;;;12.95;9.95;;;;;;;15.29;69.32;101499.38;5048124;28;20031;-78
2023/06/17 05:33:16;;;;;;;11.85;9.80;;;;;;;15.38;69.34;101498.19;5051971;28;20021;-78
2023/06/17 05:35:42;;;;;;;12.82;9.65;;;;;;;15.46;68.96;101495.31;5050257;28;20025;-78
2023/06/17 05:38:07;;;;;;;15.93;10.05;;;;;;;15.54;69.55;101498.50;5046767;28;20037;-79
2023/06/17 05:40:32;;;;;;;16.88;10.07;;;;;;;15.61;68.78;101500.00;5048281;28;20094;-78
2023/06/17 05:42:57;;;;;;;13.95;9.95;;;;;;;15.67;69.15;101498.91;5031864;28;20036;-78
2023/06/17 05:45:22;;;;;;;13.40;10.48;;;;;;;15.74;67.14;101499.53;5049938;28;20028;-78
2023/06/17 05:47:48;;;;;;;14.77;10.88;;;;;;;15.79;66.33;101492.34;5045744;28;20033;-78
2023/06/17 05:50:13;;;;;;;14.00;10.80;;;;;;;15.89;66.16;101493.75;5045289;28;20056;-80
2023/06/17 05:52:38;;;;;;;12.98;10.32;;;;;;;15.98;66.88;101486.44;5047612;28;20028;-77
2023/06/17 05:55:04;;;;;;;16.65;10.50;;;;;;;16.05;67.04;101493.19;5045724;28;20025;-77
2023/06/17 05:57:30;;;;;;;13.40;10.73;;;;;;;16.13;65.89;101495.50;5049528;28;20047;-77
2023/06/17 05:59:55;;;;;;;12.52;10.15;;;;;;;16.20;65.66;101494.34;5043229;28;20375;-77
2023/06/17 06:02:20;;;;;;;12.07;9.50;;;;;;;16.29;65.51;101495.75;5046759;28;20091;-78
2023/06/17 06:04:47;;;;;;;10.70;8.48;;;;;;;16.35;65.38;101492.91;5050003;28;20089;-77
2023/06/17 06:07:12;;;;;;;12.80;8.77;;;;;;;16.43;65.37;101498.69;5048325;28;20031;-78
2023/06/17 06:09:37;;;;;;;13.25;8.90;;;;;;;16.52;65.64;101502.72;5049702;28;20108;-78
2023/06/17 06:12:03;;;;;;;13.40;8.68;;;;;;;16.60;65.30;101505.03;5045954;28;20360;-77
2023/06/17 06:14:29;;;;;;;11.18;8.63;;;;;;;16.66;65.49;101499.53;5046179;28;20021;-77
2023/06/17 06:16:54;;;;;;;12.05;8.57;;;;;;;16.73;65.17;101498.38;5045037;28;20025;-80
2023/06/17 06:19:19;;;;;;;11.20;8.57;;;;;;;16.80;65.52;101497.19;5044946;28;20028;-78
2023/06/17 06:21:45;;;;;;;11.95;8.43;;;;;;;16.89;65.39;101492.50;5049788;28;20536;-78
2023/06/17 06:24:10;;;;;;;11.82;9.00;;;;;;;16.96;64.87;101497.44;5047974;28;20484;-77
2023/06/17 06:26:35;;;;;;;12.95;8.40;;;;;;;17.02;64.98;101500.72;5051584;28;20021;-77
2023/06/17 06:29:01;;;;;;;15.13;8.13;;;;;;;17.07;63.57;101502.25;5048531;28;20031;-77
2023/06/17 06:31:26;;;;;;;11.88;8.52;;;;;;;17.12;63.83;101496.78;5047637;28;20028;-77
2023/06/17 06:33:51;;;;;;;12.18;8.38;;;;;;;17.18;63.71;101498.31;5047607;28;20468;-77
2023/06/17 06:36:16;;;;;;;11.10;8.07;;;;;;;17.27;65.01;101500.53;5046156;28;20033;-78
2023/06/17 06:38:42;;;;;;;10.90;9.10;;;;;;;17.33;63.82;101495.00;5043494;28;20468;-77
2023/06/17 06:41:07;;;;;;;12.68;9.23;;;;;;;17.40;63.57;101493.81;5048943;28;20029;-78
2023/06/17 06:43:32;;;;;;;13.40;8.75;;;;;;;17.48;63.54;101497.88;5048331;28;20361;-77
2023/06/17 06:45:58;;;;;;;13.70;9.35;;;;;;;17.57;63.32;101498.31;5051198;28;20071;-77
2023/06/17 06:48:23;;;;;;;11.70;9.50;;;;;;;17.64;64.08;101496.25;5048929;28;20079;-78
2023/06/17 06:50:48;;;;;;;13.32;9.75;;;;;;;17.74;63.89;101496.69;5049679;28;20052;-77
2023/06/17 06:53:13;;;;;;;13.38;8.85;;;;;;;17.80;61.31;101504.31;5048944;28;20029;-77
2023/06/17 06:55:39;;;;;;;11.93;8.95;;;;;;;17.88;63.47;101503.97;5048554;28;20043;-77
2023/06/17 06:58:04;;;;;;;11.15;8.60;;;;;;;17.95;61.50;101499.28;5030552;28;20071;-78
2023/06/17 07:00:30;;;;;;;11.50;8.45;;;;;;;18.08;60.68;101497.81;5049798;28;20029;-78
2023/06/17 07:02:56;;;;;;;10.48;8.52;;;;;;;18.18;60.63;101498.22;5050389;28;20395;-78
2023/06/17 07:05:22;;;;;;;11.52;8.35;;;;;;;18.24;60.02;101502.34;5049918;28;20032;-78
2023/06/17 07:07:47;;;;;;;9.85;8.32;;;;;;;18.30;60.84;101504.69;5049639;28;20099;-77
2023/06/17 07:10:13;;;;;;;14.05;9.05;;;;;;;18.33;59.41;101504.56;5047934;28;20387;-78
2023/06/17 07:12:40;;;;;;;11.18;8.68;;;;;;;18.37;60.42;101498.19;5047233;28;20074;-78
2023/06/17 07:15:06;;;;;;;11.05;9.55;;;;;;;18.41;58.63;101498.91;5043167;28;20025;-78
2023/06/17 07:17:31;;;;;;;9.93;7.97;;;;;;;18.47;56.71;101498.59;5044786;28;20452;-78
2023/06/17 07:19:56;;;;;;;9.35;7.97;;;;;;;18.56;56.19;101499.94;5046010;28;20029;-78
2023/06/17 07:22:22;;;;;;;9.30;7.55;;;;;;;18.65;56.57;101499.50;5042164;28;20094;-78
2023/06/17 07:24:47;;;;;;;12.73;8.25;;;;;;;18.70;57.04;101499.25;5046252;28;20117;-78
2023/06/17 07:27:12;;;;;;;8.27;7.35;;;;;;;18.73;54.14;101496.47;5044375;28;20029;-78
2023/06/17 07:29:38;;;;;;;10.38;7.30;;;;;;;18.74;54.34;101491.13;5041037;28;20045;-78
2023/06/17 07:32:03;;;;;;;8.32;6.45;;;;;;;18.83;55.27;101496.88;5044477;28;20025;-78
2023/06/17 07:34:29;;;;;;;10.73;6.72;;;;;;;18.90;55.38;101495.63;5045551;28;20100;-78
2023/06/17 07:36:54;;;;;;;8.77;6.70;;;;;;;19.01;56.12;101500.38;5048484;28;20025;-80
2023/06/17 07:39:20;;;;;;;8.40;6.28;;;;;;;19.05;54.00;101500.16;5046925;28;20029;-78
2023/06/17 07:41:45;;;;;;;7.05;6.07;;;;;;;19.14;54.00;101504.09;5045854;28;20032;-78
2023/06/17 07:44:10;;;;;;;10.35;6.15;;;;;;;19.24;54.05;101504.47;5048803;28;20021;-78
2023/06/17 07:46:35;;;;;;;10.60;5.85;;;;;;;19.33;55.50;101497.88;5049521;28;20486;-78
2023/06/17 07:49:01;;;;;;;7.43;5.85;;;;;;;19.44;53.33;101499.94;5047596;28;20026;-78
2023/06/17 07:51:26;;;;;;;9.68;5.68;;;;;;;19.52;52.64;101492.50;5046820;28;20024;-78
2023/06/17 07:53:51;;;;;;;6.78;5.90;;;;;;;19.61;52.84;101497.25;5030068;28;20533;-78
2023/06/17 07:56:20;;;;;;;7.35;5.53;;;;;;;19.71;52.28;101495.84;5045688;28;20528;-78
2023/06/17 07:58:45;;;;;;;7.97;5.78;;;;;;;19.78;51.32;101493.72;5046192;28;20119;-78
2023/06/17 08:01:11;;;;;;;7.63;5.57;;;;;;;19.83;51.63;101488.19;5045996;28;20192;-78
2023/06/17 08:03:37;;;;;;;7.65;5.32;;;;;;;19.88;51.12;101486.19;5045724;28;20048;-78
2023/06/17 08:06:02;;;;;;;6.32;5.18;;;;;;;19.95;50.20;101490.19;5045047;28;20029;-78
2023/06/17 08:08:27;;;;;;;8.13;5.28;;;;;;;19.97;49.75;101493.59;5048070;28;20075;-77
2023/06/17 08:10:53;;;;;;;8.63;5.60;;;;;;;19.97;49.37;101488.31;5042976;28;20103;-78
2023/06/17 08:13:18;;;;;;;10.05;5.38;;;;;;;20.01;49.29;101488.97;5047510;28;20024;-78
2023/06/17 08:15:43;;;;;;;7.25;5.65;;;;;;;20.05;48.10;101479.13;5044550;28;20445;-78
2023/06/17 08:18:08;;;;;;;8.35;5.43;;;;;;;20.07;45.34;101493.09;5047655;28;20029;-79
2023/06/17 08:20:36;;;;;;;8.40;5.18;;;;;;;20.07;46.76;101487.81;5050332;28;20479;-80
2023/06/17 08:23:02;;;;;;;6.53;5.00;;;;;;;20.08;46.84;101482.44;5029639;28;20079;-80
2023/06/17 08:25:27;;;;;;;6.90;4.93;;;;;;;20.12;46.09;101480.47;5046639;28;20523;-80
2023/06/17 08:27:53;;;;;;;6.22;4.78;;;;;;;;;;5046085;28;20369;-78
2023/06/17 08:30:18;;;;;;;7.63;5.37;;;;;;;20.19;46.66;101481.84;5044868;28;20029;-78
2023/06/17 08:32:43;;;;;;;6.22;5.00;;;;;;;20.26;46.55;101474.41;5045969;28;20352;-78
2023/06/17 08:35:08;;;;;;;7.88;4.93;;;;;;;20.35;46.29;101473.88;5048917;28;20018;-78
2023/06/17 08:37:34;;;;;;;6.63;5.38;;;;;;;20.43;46.04;101474.31;5048150;28;20033;-78
2023/06/17 08:39:59;;;;;;;7.00;4.90;;;;;;;20.54;45.48;101471.03;5050209;28;20037;-78
2023/06/17 08:42:26;;;;;;;6.28;4.90;;;;;;;20.61;45.25;101472.38;5050274;28;20480;-78
2023/06/17 08:44:52;;;;;;;5.78;4.18;;;;;;;20.69;45.74;101463.16;5052252;28;20483;-78
2023/06/17 08:47:18;;;;;;;5.70;4.18;;;;;;;20.74;44.77;101467.22;5051688;28;20029;-78
2023/06/17 08:49:44;;;;;;;5.47;3.88;;;;;;;20.77;45.19;101467.09;5050808;28;20028;-78
2023/06/17 08:52:13;;;;;;;7.63;4.28;;;;;;;20.83;43.25;101467.66;5045370;28;20108;-78
2023/06/17 08:54:40;;;;;;;5.82;4.03;;;;;;;20.87;41.84;101469.16;5032324;28;20021;-78
2023/06/17 08:57:10;;;;;;;5.90;3.90;;;;;;;20.91;41.38;101465.41;5050879;28;20063;-78
2023/06/17 08:59:35;;;;;;;6.20;3.70;;;;;;;20.95;41.98;101472.22;5052859;28;20086;-78
2023/06/17 09:02:01;;;;;;;6.13;3.42;;;;;;;21.02;41.86;101467.41;5048398;28;20045;-78
2023/06/17 09:04:27;;;;;;;5.72;4.00;;;;;;;21.08;40.77;101470.53;5051100;28;20029;-78
2023/06/17 09:06:53;;;;;;;6.70;4.20;;;;;;;21.15;39.74;101470.19;5050909;28;20040;-80
2023/06/17 09:09:19;;;;;;;5.57;3.78;;;;;;;21.23;41.44;101474.06;5044128;28;20020;-77
2023/06/17 09:11:49;;;;;;;6.65;4.00;;;;;;;21.33;40.74;101469.06;5043153;28;20033;-77
2023/06/17 09:14:17;;;;;;;6.97;4.15;;;;;;;21.44;39.95;101467.53;5043909;28;20028;-78
2023/06/17 09:16:43;;;;;;;7.50;3.95;;;;;;;21.54;38.29;101473.94;5049059;28;20032;-78
2023/06/17 09:19:17;;;;;;;5.03;3.78;;;;;;;21.55;39.25;101470.34;5047023;28;20025;-77
2023/06/17 09:21:47;;;;;;;5.35;3.50;;;;;;;21.58;40.49;101472.81;5045095;28;20035;-77
2023/06/17 09:24:12;;;;;;;5.80;3.90;;;;;;;21.64;39.73;101463.66;5042111;28;20127;-77
2023/06/17 09:26:44;;;;;;;4.47;3.55;;;;;;;21.72;39.41;101466.69;5043353;28;20487;-78
2023/06/17 09:29:12;;;;;;;5.43;3.60;;;;;;;21.79;39.40;101464.50;5046274;28;20063;-78
2023/06/17 09:31:51;;;;;;;7.03;4.05;;;;;;;21.81;40.26;101467.91;5045694;28;20033;-78
2023/06/17 09:34:17;;;;;;;5.32;4.03;;;;;;;21.81;38.42;101465.25;5043412;28;20199;-78
2023/06/17 09:36:43;;;;;;;7.20;4.03;;;;;;;21.83;38.14;101466.00;5041520;28;20025;-78
2023/06/17 09:39:10;;;;;;;6.07;4.22;;;;;;;21.87;39.64;101467.50;5048291;28;20510;-78
2023/06/17 09:41:37;;;;;;;5.75;3.80;;;;;;;21.91;40.12;101469.00;5046322;28;20035;-78
2023/06/17 09:44:02;;;;;;;5.68;4.13;;;;;;;21.97;38.64;101465.97;5047219;28;20087;-78
2023/06/17 09:46:35;;;;;;;5.55;4.45;;;;;;;22.00;37.16;101466.72;5042766;28;20016;-78
2023/06/17 09:49:06;;;;;;;6.03;4.10;;;;;;;22.05;38.75;101464.63;5045494;28;20025;-78
2023/06/17 09:51:37;;;;;;;5.68;4.30;;;;;;;22.11;38.42;101461.56;5048360;28;20468;-78
2023/06/17 09:54:07;;;;;;;18.45;4.97;;;;;;;22.14;38.17;101464.03;5045651;28;20049;-78
2023/06/17 09:56:33;;;;;;;7.40;4.45;;;;;;;22.17;38.69;101458.53;5047855;28;20078;-78
2023/06/17 09:58:58;;;;;;;7.18;4.60;;;;;;;22.23;37.91;101462.59;5047328;28;20460;-78
2023/06/17 10:01:30;;;;;;;9.15;5.05;;;;;;;22.27;36.37;101459.63;5040756;28;20032;-77
2023/06/17 10:03:59;;;;;;;8.32;4.65;;;;;;;22.33;37.53;101462.84;5042113;28;20072;-77
2023/06/17 10:06:29;;;;;;;7.85;4.72;;;;;;;22.36;36.41;101452.03;5043824;28;20152;-78
2023/06/17 10:08:55;;;;;;;6.50;4.15;;;;;;;22.38;37.43;101450.09;5047443;28;20032;-77
2023/06/17 10:11:22;;;;;;;6.30;4.40;;;;;;;22.39;36.14;101455.31;5044927;28;20036;-78
2023/06/17 10:13:54;;;;;;;6.75;4.47;;;;;;;22.39;36.16;101451.81;5042306;28;20032;-78
2023/06/17 10:16:23;;;;;;;6.82;4.45;;;;;;;22.40;36.95;101449.06;5046000;28;20044;-78
2023/06/17 10:18:51;;;;;;;7.85;4.20;;;;;;;22.44;38.08;101449.75;5048334;28;20033;-78
2023/06/17 10:21:19;;;;;;;6.50;3.97;;;;;;;22.52;36.90;101457.19;5049951;28;20040;-78
2023/06/17 10:23:45;;;;;;;4.95;3.85;;;;;;;22.58;35.37;101449.66;5045256;28;20032;-77
2023/06/17 10:26:12;;;;;;;5.30;3.72;;;;;;;22.59;35.74;101442.56;5047333;28;20040;-77
2023/06/17 10:28:53;;;;;;;6.55;4.07;;;;;;;22.62;36.28;101446.81;5048265;28;20024;-78
2023/06/17 10:31:22;;;;;;;10.60;4.13;;;;;;;22.61;35.55;101442.47;5041882;28;20029;-77
2023/06/17 10:33:49;;;;;;;8.40;3.80;;;;;;;22.63;37.37;101432.59;5045046;28;20025;-78
2023/06/17 10:36:14;;;;;;;5.55;3.55;;;;;;;22.69;36.01;101440.97;5044104;28;20025;-78
2023/06/17 10:38:40;;;;;;;7.38;4.07;;;;;;;22.75;35.18;101439.72;5049821;28;20040;-78
2023/06/17 10:41:05;;;;;;;6.25;3.60;;;;;;;22.79;35.12;101438.56;5046646;28;20016;-77
2023/06/17 10:43:37;;;;;;;4.95;3.33;;;;;;;22.86;34.58;101434.53;5047162;28;20071;-78
2023/06/17 10:46:02;;;;;;;3.63;2.85;;;;;;;22.96;34.76;101439.19;5051097;28;20388;-78
2023/06/17 10:48:28;;;;;;;4.32;3.05;;;;;;;23.04;34.12;101432.41;5050829;28;20709;-78
2023/06/17 10:50:57;;;;;;;4.95;3.38;;;;;;;23.11;33.69;101432.81;5027618;28;20040;-78
2023/06/17 10:53:27;;;;;;;5.10;3.40;;;;;;;23.17;32.79;101426.25;5044629;28;20095;-78
2023/06/17 10:55:52;;;;;;;4.93;3.15;;;;;;;23.18;35.09;101422.63;5040840;28;20041;-78
2023/06/17 10:58:17;;;;;;;4.95;3.08;;;;;;;23.22;34.30;101420.66;5041017;28;20021;-78
2023/06/17 11:00:42;;;;;;;5.40;3.10;;;;;;;23.25;34.29;101420.41;5042743;28;20021;-78
2023/06/17 11:03:09;;;;;;;3.72;2.90;;;;;;;23.28;33.58;101422.88;5042015;28;20189;-78
2023/06/17 11:05:35;;;;;;;4.25;3.20;;;;;;;23.29;32.48;101413.94;5045777;28;20033;-78
2023/06/17 11:08:02;;;;;;;4.72;3.05;;;;;;;23.31;34.67;101412.88;5046657;28;20475;-77
2023/06/17 11:10:28;;;;;;;4.00;2.97;;;;;;;23.36;34.95;101415.22;5053398;28;20508;-78
2023/06/17 11:12:53;;;;;;;3.60;2.75;;;;;;;23.40;35.25;101411.38;5048202;28;20037;-78
2023/06/17 11:15:20;;;;;;;7.10;2.97;;;;;;;23.43;32.75;101416.47;5044422;28;20456;-78
2023/06/17 11:17:46;;;;;;;3.80;3.13;;;;;;;23.45;32.60;101408.41;5044335;28;20040;-78